createdAt,value
2023-08-20T00:00:22.321Z,3.22
2023-08-20T00:03:14.959Z,3.25
2023-08-20T00:06:12.246Z,4.15
2023-08-20T00:09:02.993Z,2.45
2023-08-20T00:12:00.217Z,3.80
2023-08-20T00:15:06.223Z,3.58
2023-08-20T00:18:04.249Z,3.03
2023-08-20T00:20:55.585Z,3.08
2023-08-20T00:23:53.266Z,2.92
2023-08-20T00:26:44.344Z,3.40
2023-08-20T00:29:42.220Z,3.28
2023-08-20T00:32:33.020Z,2.60
2023-08-20T00:35:30.221Z,2.60
2023-08-20T00:38:20.894Z,3.33
2023-08-20T00:41:18.211Z,3.33
2023-08-20T00:44:08.862Z,2.60
2023-08-20T00:47:08.209Z,3.22
2023-08-20T00:49:59.285Z,4.00
2023-08-20T00:52:56.190Z,4.90
2023-08-20T00:55:46.892Z,2.65
2023-08-20T00:58:44.199Z,2.88
2023-08-20T01:01:34.874Z,3.17
2023-08-20T01:04:32.251Z,2.58
2023-08-20T01:07:35.709Z,3.22
2023-08-20T01:10:38.192Z,3.45
2023-08-20T01:13:29.023Z,2.85
2023-08-20T01:16:26.214Z,2.15
2023-08-20T01:19:22.835Z,3.20
2023-08-20T01:22:42.248Z,2.78
2023-08-20T01:26:22.158Z,2.88
2023-08-20T01:29:20.173Z,3.58
2023-08-20T01:32:13.089Z,3.25
2023-08-20T01:35:11.234Z,2.88
2023-08-20T01:38:01.885Z,3.45
2023-08-20T01:40:59.205Z,2.83
2023-08-20T01:43:49.865Z,3.03
2023-08-20T01:46:47.190Z,2.72
2023-08-20T01:49:44.190Z,2.63
2023-08-20T01:52:34.922Z,2.85
2023-08-20T01:55:33.029Z,3.03
2023-08-20T01:58:24.438Z,2.58
2023-08-20T02:01:21.234Z,3.45
2023-08-20T02:04:12.032Z,3.80
2023-08-20T02:07:09.213Z,2.83
2023-08-20T02:10:00.016Z,3.85
2023-08-20T02:12:57.165Z,3.28
2023-08-20T02:15:47.819Z,2.78
2023-08-20T02:18:45.193Z,3.88
2023-08-20T02:21:36.114Z,2.95
2023-08-20T02:24:33.180Z,2.90
2023-08-20T02:27:23.919Z,2.90
2023-08-20T02:30:21.188Z,2.80
2023-08-20T02:33:12.339Z,3.25
2023-08-20T02:36:11.173Z,3.30
2023-08-20T02:39:01.863Z,3.85
2023-08-20T02:41:59.219Z,4.07
2023-08-20T02:44:50.250Z,3.17
2023-08-20T02:47:47.214Z,2.60
2023-08-20T02:50:38.013Z,2.83
2023-08-20T02:53:35.166Z,4.35
2023-08-20T02:56:25.848Z,2.70
2023-08-20T02:59:23.172Z,2.85
2023-08-20T03:02:13.854Z,4.65
2023-08-20T03:05:13.158Z,2.80
2023-08-20T03:08:06.756Z,3.90
2023-08-20T03:11:04.143Z,2.78
2023-08-20T03:13:54.821Z,2.92
2023-08-20T03:16:52.146Z,3.05
2023-08-20T03:19:59.337Z,2.85
2023-08-20T03:22:57.150Z,2.72
2023-08-20T03:25:47.801Z,2.27
2023-08-20T03:28:45.139Z,2.53
2023-08-20T03:31:35.857Z,3.88
2023-08-20T03:34:33.135Z,2.85
2023-08-20T03:37:23.865Z,2.42
2023-08-20T03:40:21.167Z,2.95
2023-08-20T03:43:11.995Z,2.92
2023-08-20T03:46:10.189Z,2.83
2023-08-20T03:49:00.981Z,2.50
2023-08-20T03:51:58.123Z,3.03
2023-08-20T03:54:55.161Z,2.65
2023-08-20T03:57:46.277Z,2.60
2023-08-20T04:00:44.119Z,2.83
2023-08-20T04:03:34.827Z,2.70
2023-08-20T04:06:32.121Z,2.90
2023-08-20T04:09:22.951Z,2.67
2023-08-20T04:12:20.160Z,2.47
2023-08-20T04:15:10.912Z,3.70
2023-08-20T04:18:08.161Z,3.65
2023-08-20T04:20:59.048Z,3.83
2023-08-20T04:23:56.124Z,2.78
2023-08-20T04:26:46.859Z,3.45
2023-08-20T04:29:44.120Z,3.35
2023-08-20T04:32:34.900Z,2.65
2023-08-20T04:35:32.119Z,3.88
2023-08-20T04:38:23.450Z,3.58
2023-08-20T04:41:21.273Z,2.45
2023-08-20T04:44:12.033Z,2.87
2023-08-20T04:47:09.103Z,2.83
2023-08-20T04:49:59.763Z,3.17
2023-08-20T04:52:57.152Z,3.05
2023-08-20T04:55:47.827Z,3.58
2023-08-20T04:58:45.137Z,3.47
2023-08-20T05:01:35.840Z,3.63
2023-08-20T05:04:33.084Z,3.78
2023-08-20T05:07:30.079Z,2.83
2023-08-20T05:10:28.132Z,3.17
2023-08-20T05:13:21.234Z,4.65
2023-08-20T05:16:18.166Z,3.35
2023-08-20T05:19:08.864Z,3.25
2023-08-20T05:22:07.114Z,3.95
2023-08-20T05:25:04.197Z,3.53
2023-08-20T05:28:02.134Z,4.03
2023-08-20T05:30:57.640Z,4.47
2023-08-20T05:33:55.123Z,4.38
2023-08-20T05:36:45.804Z,5.90
2023-08-20T05:39:51.123Z,5.50
2023-08-20T05:42:41.825Z,5.75
2023-08-20T05:45:39.137Z,6.15
2023-08-20T05:48:30.201Z,5.80
2023-08-20T05:51:27.110Z,6.47
2023-08-20T05:54:17.858Z,5.47
2023-08-20T05:57:15.095Z,5.50
2023-08-20T06:00:06.805Z,5.95
2023-08-20T06:03:04.138Z,4.35
2023-08-20T06:05:54.880Z,4.40
2023-08-20T06:09:06.632Z,4.63
2023-08-20T06:11:58.806Z,4.57
2023-08-20T06:14:56.119Z,4.13
2023-08-20T06:17:46.814Z,4.63
2023-08-20T06:20:44.143Z,3.47
2023-08-20T06:23:44.105Z,5.20
2023-08-20T06:26:42.082Z,4.32
2023-08-20T06:29:32.860Z,3.67
2023-08-20T06:32:32.101Z,5.20
2023-08-20T06:35:22.832Z,4.82
2023-08-20T06:38:20.227Z,4.47
2023-08-20T06:41:10.921Z,4.82
2023-08-20T06:44:08.085Z,4.68
2023-08-20T06:46:58.769Z,4.25
2023-08-20T06:49:58.097Z,4.43
2023-08-20T06:52:48.790Z,4.30
2023-08-20T06:55:46.098Z,3.85
2023-08-20T06:58:37.204Z,4.50
2023-08-20T07:01:34.152Z,4.05
2023-08-20T07:04:25.095Z,3.17
2023-08-20T07:07:22.248Z,3.70
2023-08-20T07:10:13.301Z,3.25
2023-08-20T07:13:11.092Z,3.55
2023-08-20T07:16:01.946Z,3.05
2023-08-20T07:19:01.020Z,3.10
2023-08-20T07:21:51.712Z,3.08
2023-08-20T07:24:49.051Z,2.38
2023-08-20T07:27:39.717Z,3.00
2023-08-20T07:30:37.051Z,3.08
2023-08-20T07:33:27.717Z,2.38
2023-08-20T07:36:26.084Z,2.75
2023-08-20T07:39:18.666Z,3.50
2023-08-20T07:42:16.217Z,2.50
2023-08-20T07:45:08.320Z,2.55
2023-08-20T07:48:07.245Z,2.75
2023-08-20T07:50:58.201Z,2.70
2023-08-20T07:53:55.054Z,2.85
2023-08-20T07:57:14.013Z,2.30
2023-08-20T08:00:12.104Z,2.58
2023-08-20T08:03:02.867Z,2.42
2023-08-20T08:06:02.329Z,2.85
2023-08-20T08:08:54.820Z,2.03
2023-08-20T08:11:54.067Z,2.40
2023-08-20T08:14:45.001Z,2.08
2023-08-20T08:17:42.045Z,2.42
2023-08-20T08:20:33.060Z,1.52
2023-08-20T08:23:30.049Z,2.22
2023-08-20T08:26:20.737Z,1.90
2023-08-20T08:29:18.066Z,2.47
2023-08-20T08:35:06.074Z,2.25
2023-08-20T08:38:11.021Z,2.47
2023-08-20T08:41:02.509Z,1.50
2023-08-20T08:44:01.128Z,1.30
2023-08-20T08:46:52.717Z,2.55
2023-08-20T08:49:53.084Z,1.95
2023-08-20T08:52:47.150Z,2.05
2023-08-20T08:55:45.026Z,1.90
2023-08-20T08:58:35.721Z,1.92
2023-08-20T09:01:34.590Z,1.35
2023-08-20T09:04:25.645Z,1.50
2023-08-20T09:07:23.046Z,1.42
2023-08-20T09:13:12.043Z,1.23
2023-08-20T09:16:07.922Z,0.98
2023-08-20T09:19:09.020Z,1.65
2023-08-20T09:22:09.027Z,1.20
2023-08-20T09:24:59.866Z,1.20
2023-08-20T09:27:57.040Z,1.13
2023-08-20T09:31:03.922Z,1.42
2023-08-20T09:34:03.042Z,1.40
2023-08-20T09:36:53.923Z,1.80
2023-08-20T09:39:51.462Z,1.10
2023-08-20T09:42:43.483Z,1.10
2023-08-20T09:45:41.067Z,1.63
2023-08-20T09:48:38.685Z,1.20
2023-08-20T09:51:41.038Z,1.52
2023-08-20T09:54:51.776Z,1.13
2023-08-20T09:57:50.023Z,1.48
2023-08-20T10:00:40.894Z,1.17
2023-08-20T10:03:38.045Z,1.77
2023-08-20T10:06:30.509Z,1.33
2023-08-20T10:09:29.128Z,1.25
2023-08-20T10:12:21.331Z,2.25
2023-08-20T10:15:22.154Z,1.08
2023-08-20T10:18:15.364Z,1.70
2023-08-20T10:21:16.020Z,1.63
2023-08-20T10:24:10.012Z,1.10
2023-08-20T10:27:19.005Z,1.33
2023-08-20T10:30:19.638Z,1.20
2023-08-20T10:33:16.990Z,1.58
2023-08-20T10:36:28.060Z,1.10
2023-08-20T10:39:32.979Z,1.35
2023-08-20T10:42:34.000Z,1.50
2023-08-20T10:45:31.062Z,1.10
2023-08-20T10:51:36.039Z,1.15
2023-08-20T10:54:26.854Z,1.42
2023-08-20T10:57:25.485Z,1.55
2023-08-20T11:00:17.638Z,1.38
2023-08-20T11:03:16.012Z,1.30
2023-08-20T11:06:07.900Z,1.20
2023-08-20T11:09:06.004Z,1.08
2023-08-20T11:11:57.342Z,1.63
2023-08-20T11:14:57.103Z,1.35
2023-08-20T11:17:51.335Z,1.20
2023-08-20T11:20:49.030Z,1.33
2023-08-20T11:23:42.738Z,1.92
2023-08-20T11:26:42.047Z,1.48
2023-08-20T11:29:32.823Z,1.35
2023-08-20T11:32:31.986Z,0.82
2023-08-20T11:35:22.800Z,0.95
2023-08-20T11:38:21.036Z,0.90
2023-08-20T11:41:11.734Z,0.98
2023-08-20T11:44:09.002Z,1.08
2023-08-20T11:46:59.721Z,1.15
2023-08-20T11:50:11.988Z,0.90
2023-08-20T11:53:04.337Z,0.88
2023-08-20T11:56:01.976Z,1.20
2023-08-20T11:58:53.645Z,1.48
2023-08-20T12:01:51.046Z,1.15
2023-08-20T12:04:41.769Z,1.02
2023-08-20T12:07:39.289Z,1.02
2023-08-20T12:10:32.521Z,1.17
2023-08-20T12:13:29.995Z,0.85
2023-08-20T12:16:24.466Z,1.48
2023-08-20T12:19:22.020Z,1.27
2023-08-20T12:22:13.345Z,0.98
2023-08-20T12:25:10.994Z,1.08
2023-08-20T12:28:08.941Z,0.80
2023-08-20T12:31:06.056Z,0.80
2023-08-20T12:36:54.053Z,1.00
2023-08-20T12:39:44.772Z,0.95
2023-08-20T12:42:43.762Z,0.70
2023-08-20T12:45:35.489Z,1.08
2023-08-20T12:48:32.998Z,0.93
2023-08-20T12:51:23.694Z,0.90
2023-08-20T12:54:21.037Z,1.02
2023-08-20T12:57:11.708Z,0.68
2023-08-20T13:00:19.004Z,0.73
2023-08-20T13:03:10.543Z,0.85
2023-08-20T13:06:07.980Z,0.70
2023-08-20T13:08:59.450Z,1.25
2023-08-20T13:11:59.000Z,1.10
2023-08-20T13:14:50.122Z,0.57
2023-08-20T13:17:48.204Z,1.08
2023-08-20T13:20:38.960Z,0.95
2023-08-20T13:23:35.942Z,0.73
2023-08-20T13:26:26.604Z,1.20
2023-08-20T13:29:23.950Z,1.13
2023-08-20T13:32:14.633Z,0.93
2023-08-20T13:35:13.030Z,0.75
2023-08-20T13:38:05.653Z,0.70
2023-08-20T13:41:09.235Z,0.80
2023-08-20T13:44:03.913Z,0.50
2023-08-20T13:47:03.980Z,1.17
2023-08-20T13:49:54.675Z,1.08
2023-08-20T13:52:51.940Z,0.85
2023-08-20T13:55:42.820Z,1.13
2023-08-20T13:58:39.943Z,0.75
2023-08-20T14:04:28.200Z,0.73
2023-08-20T14:07:19.679Z,1.42
2023-08-20T14:10:17.958Z,1.08
2023-08-20T14:13:08.601Z,1.00
2023-08-20T14:16:06.004Z,0.77
2023-08-20T14:18:56.779Z,1.17
2023-08-20T14:21:53.925Z,1.25
2023-08-20T14:27:41.933Z,1.27
2023-08-20T14:30:36.983Z,1.02
2023-08-20T14:33:38.116Z,1.27
2023-08-20T14:36:28.806Z,0.60
2023-08-20T14:39:25.953Z,1.23
2023-08-20T14:45:13.966Z,1.20
2023-08-20T14:48:05.177Z,0.70
2023-08-20T14:51:02.970Z,0.75
2023-08-20T14:53:53.662Z,1.15
2023-08-20T14:56:51.932Z,1.33
2023-08-20T14:59:43.142Z,0.75
2023-08-20T15:02:40.011Z,1.15
2023-08-20T15:05:31.581Z,1.08
2023-08-20T15:08:28.912Z,0.73
2023-08-20T15:14:16.697Z,0.77
2023-08-20T15:17:13.954Z,1.02
2023-08-20T15:20:13.400Z,0.80
2023-08-20T15:23:11.933Z,0.90
2023-08-20T15:26:02.638Z,0.90
2023-08-20T15:28:59.951Z,1.02
2023-08-20T15:31:52.663Z,0.70
2023-08-20T15:34:49.944Z,1.02
2023-08-20T15:37:41.097Z,1.90
2023-08-20T15:40:39.174Z,1.60
2023-08-20T15:43:30.117Z,0.88
2023-08-20T15:46:27.935Z,1.23
2023-08-20T15:49:18.662Z,0.73
2023-08-20T15:52:15.901Z,1.02
2023-08-20T15:55:07.172Z,1.40
2023-08-20T15:58:04.885Z,1.20
2023-08-20T16:03:53.106Z,1.13
2023-08-20T16:09:46.913Z,1.60
2023-08-20T16:12:41.423Z,1.40
2023-08-20T16:15:38.908Z,1.30
2023-08-20T16:18:29.610Z,1.35
2023-08-20T16:21:26.924Z,1.40
2023-08-20T16:24:17.598Z,2.65
2023-08-20T16:27:14.939Z,1.13
2023-08-20T16:30:07.424Z,1.17
2023-08-20T16:33:04.983Z,1.23
2023-08-20T16:35:55.827Z,1.10
2023-08-20T16:38:52.893Z,1.70
2023-08-20T16:41:43.700Z,1.08
2023-08-20T16:44:40.861Z,1.73
2023-08-20T16:47:31.561Z,2.20
2023-08-20T16:50:29.872Z,0.90
2023-08-20T16:53:20.629Z,1.85
2023-08-20T16:56:17.891Z,1.00
2023-08-20T16:59:09.459Z,1.20
2023-08-20T17:02:06.919Z,1.52
2023-08-20T17:04:57.644Z,1.80
2023-08-20T17:07:54.914Z,1.83
2023-08-20T17:10:45.657Z,1.70
2023-08-20T17:13:43.904Z,2.05
2023-08-20T17:16:42.271Z,1.92
